Time;durP1;ratioP1;P1;durP2;ratioP2;P2;SDS_P1;SDS_P2;PMS_P1;PMS_P2;Temp;Humidity;BMP_temperature;BMP_pressure;BME280_temperature;BME280_humidity;BME280_pressure;Samples;Min_cycle;Max_cycle;Signal;HPM_P1;HPM_P2
2022/02/17 00:02:24;;;;;;;;;;;;;;;;;;5030614;28;1973;-70
2022/02/17 00:04:51;;;;;;;;;;;;;;;;;;5030350;28;809;-69
2022/02/17 00:07:18;;;;;;;;;;;;;;;;;;5030486;28;1324;-69
2022/02/17 00:09:44;;;;;;;;;;;;;;;;;;5033036;28;954;-69
2022/02/17 00:12:11;;;;;;;;;;;;;;;;;;5016387;28;1120;-70
2022/02/17 00:14:37;;;;;;;;;;;;;;;;;;5033926;28;1049;-70
2022/02/17 00:17:03;;;;;;;;;;;;;;;;;;5034024;28;1327;-69
2022/02/17 00:19:29;;;;;;;;;;;;;;;;;;5034582;28;1002;-69
2022/02/17 00:21:56;;;;;;;;;;;;;;;;;;5034348;28;1918;-69
2022/02/17 00:24:23;;;;;;;;;;;;;;;;;;5034510;28;1055;-69
2022/02/17 00:29:20;;;;;;;;;;;;;;;;;;4986908;28;1741;-72
2022/02/17 00:31:46;;;;;;;;;;;;;;;;;;4973616;28;1502;-72
2022/02/17 00:34:13;;;;;;;;;;;;;;;;;;4974661;28;1133;-72
2022/02/17 00:36:39;;;;;;;;;;;;;;;;;;4975132;28;1125;-73
2022/02/17 00:39:06;;;;;;;;;;;;;;;;;;4992376;28;1569;-72
2022/02/17 00:41:33;;;;;;;;;;;;;;;;;;4994204;28;1986;-72
2022/02/17 00:43:59;;;;;;;;;;;;;;;;;;4993027;28;1192;-72
2022/02/17 00:46:27;;;;;;;;;;;;;;;;;;4993020;28;1168;-72
2022/02/17 00:48:53;;;;;;;;;;;;;;;;;;4992919;28;1350;-73
2022/02/17 00:51:19;;;;;;;;;;;;;;;;;;4993005;28;1117;-71
2022/02/17 00:53:45;;;;;;;;;;;;;;;;;;4992718;28;1366;-72
2022/02/17 00:56:12;;;;;;;;;;;;;;;;;;4992718;28;1189;-72
2022/02/17 00:58:41;;;;;;;;;;;;;;;;;;4992732;28;1836;-73
2022/02/17 01:01:21;;;;;;;;;;;;;;;;;;4992719;28;1910;-73
2022/02/17 01:03:47;;;;;;;;;;;;;;;;;;4996579;28;1070;-72
2022/02/17 01:06:14;;;;;;;;;;;;;;;;;;4993934;28;1367;-72
2022/02/17 01:08:40;;;;;;;;;;;;;;;;;;4992671;28;1448;-72
2022/02/17 01:11:07;;;;;;;;;;;;;;;;;;4993481;28;808;-72
2022/02/17 01:13:34;;;;;;;;;;;;;;;;;;4992527;28;1212;-72
2022/02/17 01:16:02;;;;;;;;;;;;;;;;;;4979384;28;1613;-72
2022/02/17 01:18:28;;;;;;;;;;;;;;;;;;4970257;28;1588;-72
2022/02/17 01:20:54;;;;;;;;;;;;;;;;;;4969332;28;1968;-72
2022/02/17 01:23:20;;;;;;;;;;;;;;;;;;4969894;28;1380;-72
2022/02/17 01:25:47;;;;;;;;;;;;;;;;;;4953352;29;1185;-72
2022/02/17 01:28:13;;;;;;;;;;;;;;;;;;4972886;28;1660;-72
2022/02/17 01:30:45;;;;;;;;;;;;;;;;;;4988846;28;1290;-72
2022/02/17 01:33:14;;;;;;;;;;;;;;;;;;4975953;28;1453;-72
2022/02/17 01:35:50;;;;;;;;;;;;;;;;;;4975943;28;2425;-72
2022/02/17 01:38:17;;;;;;;;;;;;;;;;;;4975790;28;1302;-71
2022/02/17 01:40:43;;;;;;;;;;;;;;;;;;4975885;28;1391;-72
2022/02/17 01:43:15;;;;;;;;;;;;;;;;;;4975930;28;2050;-72
2022/02/17 01:45:42;;;;;;;;;;;;;;;;;;4992965;28;889;-72
2022/02/17 01:48:09;;;;;;;;;;;;;;;;;;4992467;28;1309;-70
2022/02/17 01:50:41;;;;;;;;;;;;;;;;;;4975888;28;1417;-72
2022/02/17 01:53:08;;;;;;;;;;;;;;;;;;4993118;28;868;-72
2022/02/17 01:55:36;;;;;;;;;;;;;;;;;;4975237;28;1389;-72
2022/02/17 01:58:03;;;;;;;;;;;;;;;;;;4975427;28;1327;-72
2022/02/17 02:00:29;;;;;;;;;;;;;;;;;;4975650;28;1239;-72
2022/02/17 02:02:55;;;;;;;;;;;;;;;;;;4993025;28;1919;-71
2022/02/17 02:05:39;;;;;;;;;;;;;;;;;;4975162;28;1317;-72
2022/02/17 02:08:08;;;;;;;;;;;;;;;;;;4975472;28;1515;-72
2022/02/17 02:10:34;;;;;;;;;;;;;;;;;;4975319;28;1192;-72
2022/02/17 02:13:01;;;;;;;;;;;;;;;;;;4975755;28;1189;-72
2022/02/17 02:15:43;;;;;;;;;;;;;;;;;;4982072;28;1357;-72
2022/02/17 02:18:11;;;;;;;;;;;;;;;;;;4994772;28;1337;-72
2022/02/17 02:20:42;;;;;;;;;;;;;;;;;;4994940;28;1346;-72
2022/02/17 02:23:08;;;;;;;;;;;;;;;;;;4995504;28;1919;-72
2022/02/17 02:25:35;;;;;;;;;;;;;;;;;;4986430;28;1559;-73
2022/02/17 02:28:01;;;;;;;;;;;;;;;;;;4984837;28;1411;-72
2022/02/17 02:30:27;;;;;;;;;;;;;;;;;;4991467;28;1343;-72
2022/02/17 02:32:53;;;;;;;;;;;;;;;;;;4991224;28;1313;-72
2022/02/17 02:35:20;;;;;;;;;;;;;;;;;;4993475;28;1047;-72
2022/02/17 02:37:48;;;;;;;;;;;;;;;;;;4994651;28;1329;-72
2022/02/17 02:40:23;;;;;;;;;;;;;;;;;;4991150;28;1880;-72
2022/02/17 02:42:50;;;;;;;;;;;;;;;;;;4990389;28;1911;-72
2022/02/17 02:45:17;;;;;;;;;;;;;;;;;;4990946;28;980;-72
2022/02/17 02:47:44;;;;;;;;;;;;;;;;;;4992317;28;1307;-72
2022/02/17 02:50:10;;;;;;;;;;;;;;;;;;4992188;28;1150;-72
2022/02/17 02:52:37;;;;;;;;;;;;;;;;;;4991941;28;781;-72
2022/02/17 02:55:05;;;;;;;;;;;;;;;;;;4990375;28;1147;-72
2022/02/17 02:57:31;;;;;;;;;;;;;;;;;;4990621;28;1338;-72
2022/02/17 02:59:57;;;;;;;;;;;;;;;;;;4990372;28;1155;-72
2022/02/17 03:02:24;;;;;;;;;;;;;;;;;;4991872;28;1977;-72
2022/02/17 03:04:50;;;;;;;;;;;;;;;;;;4990493;28;1344;-72
2022/02/17 03:07:18;;;;;;;;;;;;;;;;;;4990369;28;1672;-72
2022/02/17 03:09:45;;;;;;;;;;;;;;;;;;4990627;28;1174;-72
2022/02/17 03:12:16;;;;;;;;;;;;;;;;;;4990650;28;1564;-72
2022/02/17 03:14:44;;;;;;;;;;;;;;;;;;4990372;28;1223;-72
2022/02/17 03:17:17;;;;;;;;;;;;;;;;;;4987136;28;1358;-72
2022/02/17 03:19:44;;;;;;;;;;;;;;;;;;4972314;28;809;-72
2022/02/17 03:22:12;;;;;;;;;;;;;;;;;;4985861;28;2190;-72
2022/02/17 03:24:39;;;;;;;;;;;;;;;;;;4989714;28;1467;-72
2022/02/17 03:27:06;;;;;;;;;;;;;;;;;;4990982;28;1331;-72
2022/02/17 03:29:35;;;;;;;;;;;;;;;;;;4974115;28;1144;-72
2022/02/17 03:32:04;;;;;;;;;;;;;;;;;;4990675;28;932;-72
2022/02/17 03:34:30;;;;;;;;;;;;;;;;;;4973800;28;1197;-73
2022/02/17 03:36:58;;;;;;;;;;;;;;;;;;4974035;28;1457;-73
2022/02/17 03:39:26;;;;;;;;;;;;;;;;;;4974090;28;1490;-72
2022/02/17 03:41:55;;;;;;;;;;;;;;;;;;5008728;28;1911;-72
2022/02/17 03:44:24;;;;;;;;;;;;;;;;;;4994485;28;1370;-72
2022/02/17 03:46:56;;;;;;;;;;;;;;;;;;4997327;28;1323;-72
2022/02/17 03:49:38;;;;;;;;;;;;;;;;;;5002852;28;1374;-72
2022/02/17 03:52:05;;;;;;;;;;;;;;;;;;5014864;28;809;-73
2022/02/17 03:54:33;;;;;;;;;;;;;;;;;;4996863;28;1508;-72
2022/02/17 03:57:02;;;;;;;;;;;;;;;;;;4997177;28;1484;-72
2022/02/17 03:59:42;;;;;;;;;;;;;;;;;;4997080;28;1166;-72
2022/02/17 04:02:09;;;;;;;;;;;;;;;;;;4996706;28;1969;-72
2022/02/17 04:04:38;;;;;;;;;;;;;;;;;;4996576;28;1174;-72
2022/02/17 04:07:05;;;;;;;;;;;;;;;;;;4996848;28;1343;-72
2022/02/17 04:09:32;;;;;;;;;;;;;;;;;;5014737;28;770;-72
2022/02/17 04:11:58;;;;;;;;;;;;;;;;;;4997115;28;1210;-72
2022/02/17 04:14:30;;;;;;;;;;;;;;;;;;4996681;28;1436;-72
2022/02/17 04:16:56;;;;;;;;;;;;;;;;;;4991518;28;1331;-72
2022/02/17 04:19:34;;;;;;;;;;;;;;;;;;4977382;28;1290;-72
2022/02/17 04:22:08;;;;;;;;;;;;;;;;;;4976943;28;2064;-72
2022/02/17 04:24:46;;;;;;;;;;;;;;;;;;4977109;28;1416;-72
2022/02/17 04:27:16;;;;;;;;;;;;;;;;;;4985568;28;1542;-72
2022/02/17 04:30:00;;;;;;;;;;;;;;;;;;4996606;28;1301;-72
2022/02/17 04:32:27;;;;;;;;;;;;;;;;;;4996627;28;1177;-72
2022/02/17 04:34:54;;;;;;;;;;;;;;;;;;4996379;28;1647;-72
2022/02/17 04:37:20;;;;;;;;;;;;;;;;;;4996223;28;1365;-72
2022/02/17 04:39:47;;;;;;;;;;;;;;;;;;4996030;28;1621;-72
2022/02/17 04:42:18;;;;;;;;;;;;;;;;;;4996131;28;1910;-72
2022/02/17 04:44:44;;;;;;;;;;;;;;;;;;4996024;28;1347;-72
2022/02/17 04:47:11;;;;;;;;;;;;;;;;;;4996118;28;1389;-72
2022/02/17 04:49:37;;;;;;;;;;;;;;;;;;4996366;28;1550;-72
2022/02/17 04:52:05;;;;;;;;;;;;;;;;;;4996242;28;1321;-72
2022/02/17 04:54:31;;;;;;;;;;;;;;;;;;5013451;28;813;-72
2022/02/17 04:57:00;;;;;;;;;;;;;;;;;;4994955;28;1403;-72
2022/02/17 04:59:29;;;;;;;;;;;;;;;;;;4996080;28;1506;-72
2022/02/17 05:01:57;;;;;;;;;;;;;;;;;;4996109;28;1585;-72
2022/02/17 05:04:41;;;;;;;;;;;;;;;;;;5013938;28;743;-74
2022/02/17 05:07:13;;;;;;;;;;;;;;;;;;4996727;28;1606;-73
2022/02/17 05:09:39;;;;;;;;;;;;;;;;;;4997731;28;1176;-72
2022/02/17 05:12:06;;;;;;;;;;;;;;;;;;5000952;28;1582;-73
2022/02/17 05:14:33;;;;;;;;;;;;;;;;;;4995886;28;1514;-72
2022/02/17 05:16:59;;;;;;;;;;;;;;;;;;4996218;28;1287;-73
2022/02/17 05:19:29;;;;;;;;;;;;;;;;;;4995887;28;1452;-72
2022/02/17 05:22:18;;;;;;;;;;;;;;;;;;4995988;28;1968;-72
2022/02/17 05:25:00;;;;;;;;;;;;;;;;;;4995849;28;1441;-73
2022/02/17 05:27:45;;;;;;;;;;;;;;;;;;5013343;28;1346;-73
2022/02/17 05:30:19;;;;;;;;;;;;;;;;;;4996755;28;1261;-72
2022/02/17 05:33:06;;;;;;;;;;;;;;;;;;5013350;28;726;-72
2022/02/17 05:35:54;;;;;;;;;;;;;;;;;;4995324;28;1268;-72
2022/02/17 05:38:57;;;;;;;;;;;;;;;;;;4997661;28;1443;-72
2022/02/17 05:41:42;;;;;;;;;;;;;;;;;;5013414;28;750;-73
2022/02/17 05:44:08;;;;;;;;;;;;;;;;;;5012413;28;1910;-72
2022/02/17 05:46:35;;;;;;;;;;;;;;;;;;4985111;28;1633;-73
2022/02/17 05:49:02;;;;;;;;;;;;;;;;;;4990568;28;1507;-73
2022/02/17 05:51:28;;;;;;;;;;;;;;;;;;4990397;28;1674;-72
2022/02/17 05:53:56;;;;;;;;;;;;;;;;;;4989042;28;1055;-73
2022/02/17 05:56:22;;;;;;;;;;;;;;;;;;4972983;28;1549;-73
2022/02/17 05:58:48;;;;;;;;;;;;;;;;;;4990341;28;1519;-73
2022/02/17 06:01:15;;;;;;;;;;;;;;;;;;4990687;28;1483;-73
2022/02/17 06:03:41;;;;;;;;;;;;;;;;;;4973593;28;1970;-72
2022/02/17 06:06:07;;;;;;;;;;;;;;;;;;4972690;28;1514;-72
2022/02/17 06:08:33;;;;;;;;;;;;;;;;;;4990217;28;1488;-72
2022/02/17 06:11:01;;;;;;;;;;;;;;;;;;4972797;28;1551;-73
2022/02/17 06:13:27;;;;;;;;;;;;;;;;;;4990438;28;700;-73
2022/02/17 06:15:53;;;;;;;;;;;;;;;;;;4989055;28;1179;-74
2022/02/17 06:18:20;;;;;;;;;;;;;;;;;;4972937;28;1541;-74
2022/02/17 06:20:47;;;;;;;;;;;;;;;;;;4990575;28;1591;-73
2022/02/17 06:23:14;;;;;;;;;;;;;;;;;;4991793;28;1923;-74
2022/02/17 06:25:40;;;;;;;;;;;;;;;;;;4991843;28;1532;-74
2022/02/17 06:28:07;;;;;;;;;;;;;;;;;;4985220;28;1548;-73
2022/02/17 06:30:34;;;;;;;;;;;;;;;;;;5009994;23;2620;-71
2022/02/17 06:33:00;;;;;;;;;;;;;;;;;;4994278;28;1526;-71
2022/02/17 06:35:29;;;;;;;;;;;;;;;;;;4969982;28;1716;-70
2022/02/17 06:37:55;;;;;;;;;;;;;;;;;;4975369;28;1309;-71
2022/02/17 06:40:22;;;;;;;;;;;;;;;;;;4997339;28;1396;-70
2022/02/17 06:42:48;;;;;;;;;;;;;;;;;;4958236;28;2036;-72
2022/02/17 06:45:16;;;;;;;;;;;;;;;;;;4996374;28;1502;-70
2022/02/17 06:47:42;;;;;;;;;;;;;;;;;;5011533;28;1569;-73
2022/02/17 06:50:09;;;;;;;;;;;;;;;;;;5009679;28;1374;-73
2022/02/17 06:52:35;;;;;;;;;;;;;;;;;;4996644;28;1533;-70
2022/02/17 06:55:01;;;;;;;;;;;;;;;;;;5010383;28;1700;-72
2022/02/17 06:57:27;;;;;;;;;;;;;;;;;;5008870;28;1593;-72
2022/02/17 07:00:01;;;;;;;;;;;;;;;;;;4989890;28;1433;-71
2022/02/17 07:02:31;;;;;;;;;;;;;;;;;;4991333;28;944;-72
2022/02/17 07:04:57;;;;;;;;;;;;;;;;;;5007046;28;1920;-71
2022/02/17 07:07:23;;;;;;;;;;;;;;;;;;5004486;28;1270;-72
2022/02/17 07:09:50;;;;;;;;;;;;;;;;;;5002798;28;1609;-73
2022/02/17 07:12:16;;;;;;;;;;;;;;;;;;5018307;28;1345;-71
2022/02/17 07:14:42;;;;;;;;;;;;;;;;;;5010753;28;1597;-71
2022/02/17 07:17:09;;;;;;;;;;;;;;;;;;5010998;28;1557;-74
2022/02/17 07:19:36;;;;;;;;;;;;;;;;;;4998181;28;1484;-71
2022/02/17 07:22:03;;;;;;;;;;;;;;;;;;5001099;28;1303;-72
2022/02/17 07:24:30;;;;;;;;;;;;;;;;;;5010055;28;1910;-73
2022/02/17 07:26:56;;;;;;;;;;;;;;;;;;5010740;28;781;-72
2022/02/17 07:29:22;;;;;;;;;;;;;;;;;;5003716;28;1596;-72
2022/02/17 07:31:52;;;;;;;;;;;;;;;;;;5010312;28;986;-71
2022/02/17 07:34:18;;;;;;;;;;;;;;;;;;5001919;28;1569;-71
2022/02/17 07:36:46;;;;;;;;;;;;;;;;;;5006780;28;1256;-70
2022/02/17 07:39:12;;;;;;;;;;;;;;;;;;5010038;28;1564;-72
2022/02/17 07:41:39;;;;;;;;;;;;;;;;;;5010562;28;1569;-72
2022/02/17 07:44:07;;;;;;;;;;;;;;;;;;5010025;28;1973;-71
2022/02/17 07:46:33;;;;;;;;;;;;;;;;;;5010776;28;1510;-72
2022/02/17 07:49:00;;;;;;;;;;;;;;;;;;5009830;28;1496;-73
2022/02/17 07:51:26;;;;;;;;;;;;;;;;;;5002780;28;1510;-71
2022/02/17 07:53:54;;;;;;;;;;;;;;;;;;5010024;28;1585;-74
2022/02/17 07:56:20;;;;;;;;;;;;;;;;;;5004470;28;2164;-72
2022/02/17 07:58:46;;;;;;;;;;;;;;;;;;5008762;28;1511;-72
2022/02/17 08:01:14;;;;;;;;;;;;;;;;;;5009838;28;1534;-75
2022/02/17 08:03:41;;;;;;;;;;;;;;;;;;5001173;28;1911;-74
2022/02/17 08:06:07;;;;;;;;;;;;;;;;;;4994832;28;1260;-74
2022/02/17 08:08:33;;;;;;;;;;;;;;;;;;4989765;28;1328;-75
2022/02/17 08:11:01;;;;;;;;;;;;;;;;;;5002705;28;1480;-75
2022/02/17 08:13:27;;;;;;;;;;;;;;;;;;4995432;28;1550;-73
2022/02/17 08:15:55;;;;;;;;;;;;;;;;;;5000079;28;1490;-73
2022/02/17 08:18:22;;;;;;;;;;;;;;;;;;5009207;28;1601;-74
2022/02/17 08:20:48;;;;;;;;;;;;;;;;;;5009874;28;1317;-75
2022/02/17 08:23:15;;;;;;;;;;;;;;;;;;5009950;28;1918;-74
2022/02/17 08:25:41;;;;;;;;;;;;;;;;;;5008068;28;1480;-75
2022/02/17 08:28:08;;;;;;;;;;;;;;;;;;4990696;28;944;-74
2022/02/17 08:30:36;;;;;;;;;;;;;;;;;;4991376;28;1286;-74
2022/02/17 08:33:02;;;;;;;;;;;;;;;;;;4996084;28;1054;-75
2022/02/17 08:35:37;;;;;;;;;;;;;;;;;;4994842;28;1019;-74
2022/02/17 08:38:03;;;;;;;;;;;;;;;;;;5010772;28;951;-75
2022/02/17 08:40:30;;;;;;;;;;;;;;;;;;5013941;28;1312;-76
2022/02/17 08:43:08;;;;;;;;;;;;;;;;;;5013506;28;1054;-74
2022/02/17 08:45:36;;;;;;;;;;;;;;;;;;5013401;28;1914;-74
2022/02/17 08:48:03;;;;;;;;;;;;;;;;;;5013249;28;1018;-75
2022/02/17 08:50:29;;;;;;;;;;;;;;;;;;5013013;28;1330;-74
2022/02/17 08:52:55;;;;;;;;;;;;;;;;;;5013688;28;857;-75
2022/02/17 08:55:21;;;;;;;;;;;;;;;;;;5011277;28;1228;-75
2022/02/17 08:57:48;;;;;;;;;;;;;;;;;;5013333;28;1070;-75
2022/02/17 09:00:15;;;;;;;;;;;;;;;;;;5011916;28;1335;-74
2022/02/17 09:02:43;;;;;;;;;;;;;;;;;;5013273;28;1014;-74
2022/02/17 09:05:09;;;;;;;;;;;;;;;;;;5004135;28;1927;-75
2022/02/17 09:07:35;;;;;;;;;;;;;;;;;;4997652;28;1064;-75
2022/02/17 09:10:02;;;;;;;;;;;;;;;;;;5005702;28;1529;-74
2022/02/17 09:12:29;;;;;;;;;;;;;;;;;;5011860;28;1681;-76
2022/02/17 09:14:55;;;;;;;;;;;;;;;;;;5008586;28;1498;-76
2022/02/17 09:17:22;;;;;;;;;;;;;;;;;;4993343;28;1085;-76
2022/02/17 09:19:49;;;;;;;;;;;;;;;;;;5003651;28;1506;-76
2022/02/17 09:22:16;;;;;;;;;;;;;;;;;;5011167;28;1705;-75
2022/02/17 09:24:42;;;;;;;;;;;;;;;;;;5011525;28;1914;-75
2022/02/17 09:27:08;;;;;;;;;;;;;;;;;;5004156;28;1213;-74
2022/02/17 09:29:34;;;;;;;;;;;;;;;;;;5012564;28;1580;-75
2022/02/17 09:32:00;;;;;;;;;;;;;;;;;;5012136;28;1538;-76
2022/02/17 09:34:28;;;;;;;;;;;;;;;;;;5002165;28;1391;-76
2022/02/17 09:36:55;;;;;;;;;;;;;;;;;;4994518;28;939;-75
2022/02/17 09:39:22;;;;;;;;;;;;;;;;;;5004360;28;1361;-75
2022/02/17 09:41:48;;;;;;;;;;;;;;;;;;5004933;28;1513;-76
2022/02/17 09:44:14;;;;;;;;;;;;;;;;;;4996830;28;1989;-75
2022/02/17 09:46:45;;;;;;;;;;;;;;;;;;5008042;28;1238;-75
2022/02/17 09:49:14;;;;;;;;;;;;;;;;;;4999075;28;1565;-74
2022/02/17 09:51:41;;;;;;;;;;;;;;;;;;5012192;28;1379;-74
2022/02/17 09:54:09;;;;;;;;;;;;;;;;;;5010894;28;1267;-74
2022/02/17 09:56:36;;;;;;;;;;;;;;;;;;5010422;28;1502;-74
2022/02/17 09:59:02;;;;;;;;;;;;;;;;;;5010945;28;1471;-74
2022/02/17 10:01:28;;;;;;;;;;;;;;;;;;5012182;28;1122;-74
2022/02/17 10:04:10;;;;;;;;;;;;;;;;;;5011802;28;1966;-74
2022/02/17 10:06:39;;;;;;;;;;;;;;;;;;5011746;28;1339;-74
2022/02/17 10:09:06;;;;;;;;;;;;;;;;;;5011893;28;1450;-74
2022/02/17 10:11:34;;;;;;;;;;;;;;;;;;5007651;28;1593;-74
2022/02/17 10:14:00;;;;;;;;;;;;;;;;;;5011186;28;1454;-73
2022/02/17 10:16:27;;;;;;;;;;;;;;;;;;5011738;28;1463;-74
2022/02/17 10:18:55;;;;;;;;;;;;;;;;;;5007073;28;1573;-74
2022/02/17 10:21:21;;;;;;;;;;;;;;;;;;5003536;28;999;-74
2022/02/17 10:23:48;;;;;;;;;;;;;;;;;;5015343;28;1923;-75
2022/02/17 10:26:15;;;;;;;;;;;;;;;;;;5012176;28;1482;-75
2022/02/17 10:28:44;;;;;;;;;;;;;;;;;;4992422;28;1041;-74
2022/02/17 10:31:21;;;;;;;;;;;;;;;;;;5000785;28;1425;-74
2022/02/17 10:33:52;;;;;;;;;;;;;;;;;;5015673;28;1472;-74
2022/02/17 10:36:19;;;;;;;;;;;;;;;;;;5011110;28;1565;-75
2022/02/17 10:38:46;;;;;;;;;;;;;;;;;;5011979;28;1573;-76
2022/02/17 10:41:13;;;;;;;;;;;;;;;;;;4997056;28;1327;-76
2022/02/17 10:43:39;;;;;;;;;;;;;;;;;;5007924;28;1315;-75
2022/02/17 10:46:11;;;;;;;;;;;;;;;;;;5007005;28;1911;-73
2022/02/17 10:48:37;;;;;;;;;;;;;;;;;;5011140;28;1477;-73
2022/02/17 10:51:07;;;;;;;;;;;;;;;;;;5010818;28;1361;-74
2022/02/17 10:53:35;;;;;;;;;;;;;;;;;;5007411;28;1269;-74
2022/02/17 10:56:04;;;;;;;;;;;;;;;;;;4991045;28;1063;-74
2022/02/17 10:58:30;;;;;;;;;;;;;;;;;;5020876;28;1552;-73
2022/02/17 11:00:57;;;;;;;;;;;;;;;;;;5010388;28;1565;-74
2022/02/17 11:03:26;;;;;;;;;;;;;;;;;;5010740;28;1050;-73
2022/02/17 11:05:52;;;;;;;;;;;;;;;;;;5008063;28;1926;-74
2022/02/17 11:08:18;;;;;;;;;;;;;;;;;;5009112;28;1502;-75
2022/02/17 11:10:44;;;;;;;;;;;;;;;;;;5008443;28;1519;-74
2022/02/17 11:13:12;;;;;;;;;;;;;;;;;;5010060;28;1569;-74
2022/02/17 11:15:39;;;;;;;;;;;;;;;;;;4998343;28;938;-75
2022/02/17 11:18:05;;;;;;;;;;;;;;;;;;5005273;28;1525;-75
2022/02/17 11:20:32;;;;;;;;;;;;;;;;;;5010545;28;1400;-75
2022/02/17 11:22:59;;;;;;;;;;;;;;;;;;5010333;28;1651;-74
2022/02/17 11:25:35;;;;;;;;;;;;;;;;;;5009392;28;1919;-75
2022/02/17 11:28:01;;;;;;;;;;;;;;;;;;5005109;28;1550;-74
2022/02/17 11:30:28;;;;;;;;;;;;;;;;;;4998565;28;1538;-74
2022/02/17 11:33:12;;;;;;;;;;;;;;;;;;4997296;28;887;-74
2022/02/17 11:35:40;;;;;;;;;;;;;;;;;;5005449;28;1621;-74
2022/02/17 11:38:22;;;;;;;;;;;;;;;;;;5007304;28;1621;-75
2022/02/17 11:40:58;;;;;;;;;;;;;;;;;;5008643;28;1721;-74
2022/02/17 11:43:27;;;;;;;;;;;;;;;;;;5009513;28;1526;-74
2022/02/17 11:45:53;;;;;;;;;;;;;;;;;;5008424;28;1914;-74
2022/02/17 11:48:26;;;;;;;;;;;;;;;;;;4989871;28;999;-75
2022/02/17 11:50:53;;;;;;;;;;;;;;;;;;5017523;28;1550;-74
2022/02/17 11:53:23;;;;;;;;;;;;;;;;;;5002222;28;1604;-75
2022/02/17 11:55:50;;;;;;;;;;;;;;;;;;5006049;28;1414;-72
2022/02/17 11:58:34;;;;;;;;;;;;;;;;;;5008328;28;1276;-75
2022/02/17 12:01:15;;;;;;;;;;;;;;;;;;5005052;28;1394;-75
2022/02/17 12:03:57;;;;;;;;;;;;;;;;;;4994861;28;1383;-74
2022/02/17 12:06:34;;;;;;;;;;;;;;;;;;5013417;28;1975;-74
2022/02/17 12:09:00;;;;;;;;;;;;;;;;;;5013754;28;1431;-74
2022/02/17 12:11:28;;;;;;;;;;;;;;;;;;5014354;28;1577;-73
2022/02/17 12:13:55;;;;;;;;;;;;;;;;;;5013399;28;1501;-76
2022/02/17 12:16:34;;;;;;;;;;;;;;;;;;5010332;28;1172;-77
2022/02/17 12:19:08;;;;;;;;;;;;;;;;;;5031082;28;1633;-77
2022/02/17 12:21:37;;;;;;;;;;;;;;;;;;5016842;28;756;-77
2022/02/17 12:24:03;;;;;;;;;;;;;;;;;;5015482;28;1482;-75
2022/02/17 12:26:40;;;;;;;;;;;;;;;;;;5014177;28;1914;-75
2022/02/17 12:29:18;;;;;;;;;;;;;;;;;;5001039;28;1344;-75
2022/02/17 12:31:45;;;;;;;;;;;;;;;;;;5012512;28;1613;-75
2022/02/17 12:34:11;;;;;;;;;;;;;;;;;;4998001;28;1355;-76
2022/02/17 12:36:38;;;;;;;;;;;;;;;;;;5009116;28;1195;-75
2022/02/17 12:39:05;;;;;;;;;;;;;;;;;;5004514;28;1538;-75
2022/02/17 12:41:32;;;;;;;;;;;;;;;;;;5013100;28;1230;-74
2022/02/17 12:43:58;;;;;;;;;;;;;;;;;;5012984;28;1443;-75
2022/02/17 12:46:24;;;;;;;;;;;;;;;;;;5012375;28;1926;-74
2022/02/17 12:48:50;;;;;;;;;;;;;;;;;;5003649;28;1427;-76
2022/02/17 12:51:24;;;;;;;;;;;;;;;;;;5012717;28;1494;-76
2022/02/17 12:53:52;;;;;;;;;;;;;;;;;;5013666;28;1482;-77
2022/02/17 12:56:21;;;;;;;;;;;;;;;;;;5013436;28;1502;-76
2022/02/17 12:58:48;;;;;;;;;;;;;;;;;;5017758;28;1463;-76
2022/02/17 13:01:20;;;;;;;;;;;;;;;;;;5016049;28;852;-77
2022/02/17 13:03:46;;;;;;;;;;;;;;;;;;5012748;28;1573;-76
2022/02/17 13:06:18;;;;;;;;;;;;;;;;;;5012992;28;1918;-76
2022/02/17 13:08:45;;;;;;;;;;;;;;;;;;5013415;28;1537;-75
2022/02/17 13:11:13;;;;;;;;;;;;;;;;;;5011553;28;1586;-76
2022/02/17 13:13:39;;;;;;;;;;;;;;;;;;5012954;28;1074;-75
2022/02/17 13:16:05;;;;;;;;;;;;;;;;;;5011679;28;1755;-75
2022/02/17 13:18:32;;;;;;;;;;;;;;;;;;5011817;28;1248;-74
2022/02/17 13:21:11;;;;;;;;;;;;;;;;;;5013083;28;1317;-74
2022/02/17 13:23:37;;;;;;;;;;;;;;;;;;5012587;28;1596;-75
2022/02/17 13:26:03;;;;;;;;;;;;;;;;;;5010514;28;1914;-72
2022/02/17 13:28:31;;;;;;;;;;;;;;;;;;5011048;28;1518;-72
2022/02/17 13:30:57;;;;;;;;;;;;;;;;;;5011432;28;1350;-73
2022/02/17 13:33:27;;;;;;;;;;;;;;;;;;5012587;28;1510;-74
2022/02/17 13:35:56;;;;;;;;;;;;;;;;;;5011646;28;1514;-73
2022/02/17 13:38:26;;;;;;;;;;;;;;;;;;5013568;28;1544;-74
2022/02/17 13:40:53;;;;;;;;;;;;;;;;;;5014790;28;1385;-74
2022/02/17 13:43:21;;;;;;;;;;;;;;;;;;5010606;28;1304;-74
2022/02/17 13:45:59;;;;;;;;;;;;;;;;;;5004898;28;1984;-74
2022/02/17 13:48:30;;;;;;;;;;;;;;;;;;5006355;28;1578;-74
2022/02/17 13:51:00;;;;;;;;;;;;;;;;;;5013844;28;1499;-74
2022/02/17 13:53:31;;;;;;;;;;;;;;;;;;5012359;28;1417;-75
2022/02/17 13:55:58;;;;;;;;;;;;;;;;;;4997326;28;1328;-74
2022/02/17 13:58:26;;;;;;;;;;;;;;;;;;5011633;28;1272;-74
2022/02/17 14:00:54;;;;;;;;;;;;;;;;;;4992137;28;1315;-75
2022/02/17 14:03:21;;;;;;;;;;;;;;;;;;5007437;28;1522;-75
2022/02/17 14:05:47;;;;;;;;;;;;;;;;;;5006036;28;1978;-75
2022/02/17 14:08:14;;;;;;;;;;;;;;;;;;5011415;28;1672;-75
2022/02/17 14:10:40;;;;;;;;;;;;;;;;;;5011139;28;1522;-75
2022/02/17 14:13:06;;;;;;;;;;;;;;;;;;5008901;28;1275;-75
2022/02/17 14:15:32;;;;;;;;;;;;;;;;;;5006294;28;1578;-75
2022/02/17 14:18:00;;;;;;;;;;;;;;;;;;5006567;28;1075;-75
2022/02/17 14:20:28;;;;;;;;;;;;;;;;;;4996203;28;1580;-76
2022/02/17 14:22:54;;;;;;;;;;;;;;;;;;5010388;28;1458;-76
2022/02/17 14:25:20;;;;;;;;;;;;;;;;;;5010801;28;1914;-76
2022/02/17 14:27:46;;;;;;;;;;;;;;;;;;5010977;28;1367;-76
2022/02/17 14:30:13;;;;;;;;;;;;;;;;;;5011811;28;1350;-78
2022/02/17 14:32:39;;;;;;;;;;;;;;;;;;5026552;28;1204;-76
2022/02/17 14:35:10;;;;;;;;;;;;;;;;;;5010492;28;1360;-76
2022/02/17 14:37:36;;;;;;;;;;;;;;;;;;4996132;28;1248;-76
2022/02/17 14:40:02;;;;;;;;;;;;;;;;;;5011306;28;1313;-76
2022/02/17 14:42:30;;;;;;;;;;;;;;;;;;4993488;28;1415;-76
2022/02/17 14:44:57;;;;;;;;;;;;;;;;;;5010049;28;1501;-75
2022/02/17 14:47:23;;;;;;;;;;;;;;;;;;5011044;28;2044;-76
2022/02/17 14:49:52;;;;;;;;;;;;;;;;;;5010968;28;1608;-76
2022/02/17 14:52:19;;;;;;;;;;;;;;;;;;5011219;28;872;-75
2022/02/17 14:54:46;;;;;;;;;;;;;;;;;;5010594;28;1541;-74
2022/02/17 14:57:13;;;;;;;;;;;;;;;;;;5010460;28;1573;-75
2022/02/17 14:59:39;;;;;;;;;;;;;;;;;;5010603;28;1521;-74
2022/02/17 15:02:06;;;;;;;;;;;;;;;;;;5009525;28;1309;-73
2022/02/17 15:04:33;;;;;;;;;;;;;;;;;;5009762;28;1152;-75
2022/02/17 15:06:59;;;;;;;;;;;;;;;;;;5010526;28;1974;-75
2022/02/17 15:09:26;;;;;;;;;;;;;;;;;;5010720;28;1466;-75
2022/02/17 15:11:53;;;;;;;;;;;;;;;;;;5009828;28;1133;-75
2022/02/17 15:14:19;;;;;;;;;;;;;;;;;;5009749;28;1114;-75
2022/02/17 15:16:45;;;;;;;;;;;;;;;;;;5011061;28;1288;-76
2022/02/17 15:19:12;;;;;;;;;;;;;;;;;;4999981;28;1676;-75
2022/02/17 15:21:38;;;;;;;;;;;;;;;;;;5010526;28;1716;-75
2022/02/17 15:24:04;;;;;;;;;;;;;;;;;;5008958;28;1405;-76
2022/02/17 15:26:32;;;;;;;;;;;;;;;;;;5009010;28;1960;-77
2022/02/17 15:28:58;;;;;;;;;;;;;;;;;;4995793;28;1329;-75
2022/02/17 15:31:24;;;;;;;;;;;;;;;;;;4997193;28;1506;-75
2022/02/17 15:33:51;;;;;;;;;;;;;;;;;;4991284;28;1054;-75
2022/02/17 15:36:17;;;;;;;;;;;;;;;;;;4996923;28;1537;-75
2022/02/17 15:38:43;;;;;;;;;;;;;;;;;;5011280;28;1066;-76
2022/02/17 15:41:09;;;;;;;;;;;;;;;;;;5012460;28;1646;-74
2022/02/17 15:43:37;;;;;;;;;;;;;;;;;;5014595;28;1125;-75
2022/02/17 15:46:04;;;;;;;;;;;;;;;;;;5012468;28;1973;-75
2022/02/17 15:48:30;;;;;;;;;;;;;;;;;;5014923;28;950;-74
2022/02/17 15:50:56;;;;;;;;;;;;;;;;;;5008006;28;1506;-75
2022/02/17 15:53:23;;;;;;;;;;;;;;;;;;5020303;28;1566;-75
2022/02/17 15:55:49;;;;;;;;;;;;;;;;;;5014125;28;1470;-75
2022/02/17 15:58:16;;;;;;;;;;;;;;;;;;5003930;28;1434;-75
2022/02/17 16:00:43;;;;;;;;;;;;;;;;;;5012757;28;1414;-75
2022/02/17 16:03:09;;;;;;;;;;;;;;;;;;4995234;28;1449;-76
2022/02/17 16:05:37;;;;;;;;;;;;;;;;;;5011717;28;1918;-74
2022/02/17 16:08:04;;;;;;;;;;;;;;;;;;5012586;28;1453;-74
2022/02/17 16:10:30;;;;;;;;;;;;;;;;;;5013980;28;1526;-75
2022/02/17 16:12:56;;;;;;;;;;;;;;;;;;5013967;28;1027;-76
2022/02/17 16:15:22;;;;;;;;;;;;;;;;;;5013216;28;1585;-75
2022/02/17 16:17:50;;;;;;;;;;;;;;;;;;5013846;28;1446;-76
2022/02/17 16:20:17;;;;;;;;;;;;;;;;;;4996256;28;1502;-76
2022/02/17 16:22:43;;;;;;;;;;;;;;;;;;4996376;28;1498;-76
2022/02/17 16:25:09;;;;;;;;;;;;;;;;;;5012834;28;1506;-76
2022/02/17 16:27:36;;;;;;;;;;;;;;;;;;5004076;28;1918;-76
2022/02/17 16:30:03;;;;;;;;;;;;;;;;;;5013154;28;1377;-76
2022/02/17 16:32:29;;;;;;;;;;;;;;;;;;5013546;28;1564;-75
2022/02/17 16:34:57;;;;;;;;;;;;;;;;;;5013339;28;1069;-75
2022/02/17 16:37:23;;;;;;;;;;;;;;;;;;5013293;28;1538;-76
2022/02/17 16:39:49;;;;;;;;;;;;;;;;;;5013211;28;1468;-76
2022/02/17 16:42:17;;;;;;;;;;;;;;;;;;5013562;28;1676;-76
2022/02/17 16:44:44;;;;;;;;;;;;;;;;;;5013510;28;1415;-77
2022/02/17 16:47:10;;;;;;;;;;;;;;;;;;5015393;28;1906;-76
2022/02/17 16:49:36;;;;;;;;;;;;;;;;;;5013665;28;1533;-76
2022/02/17 16:52:04;;;;;;;;;;;;;;;;;;5011691;28;1505;-75
2022/02/17 16:54:30;;;;;;;;;;;;;;;;;;5027601;28;1532;-75
2022/02/17 16:56:57;;;;;;;;;;;;;;;;;;5013233;28;1556;-73
2022/02/17 16:59:23;;;;;;;;;;;;;;;;;;5011929;28;1509;-73
2022/02/17 17:01:50;;;;;;;;;;;;;;;;;;5009010;28;1600;-75
2022/02/17 17:04:16;;;;;;;;;;;;;;;;;;5009974;28;1245;-74
2022/02/17 17:06:43;;;;;;;;;;;;;;;;;;5013714;28;1915;-75
2022/02/17 17:09:11;;;;;;;;;;;;;;;;;;5013298;28;1561;-74
2022/02/17 17:11:37;;;;;;;;;;;;;;;;;;5013624;28;765;-74
2022/02/17 17:14:03;;;;;;;;;;;;;;;;;;5011850;28;1590;-74